sensor_id;sensor_type;location;lat;lon;timestamp;P1;durP1;ratioP1;P2;durP2;ratioP2
75054;SDS011;63636;44.746;10.488;2023-04-21T00:02:25;15.07;;;9.85;;
75054;SDS011;63636;44.746;10.488;2023-04-21T00:04:52;16.92;;;10.95;;
75054;SDS011;63636;44.746;10.488;2023-04-21T00:07:17;16.30;;;11.05;;
75054;SDS011;63636;44.746;10.488;2023-04-21T00:09:44;15.43;;;10.13;;
75054;SDS011;63636;44.746;10.488;2023-04-21T00:12:09;15.15;;;10.35;;
75054;SDS011;63636;44.746;10.488;2023-04-21T00:14:35;15.40;;;9.82;;
75054;SDS011;63636;44.746;10.488;2023-04-21T00:17:01;16.63;;;10.27;;
75054;SDS011;63636;44.746;10.488;2023-04-21T00:19:26;17.98;;;10.50;;
75054;SDS011;63636;44.746;10.488;2023-04-21T00:21:53;16.58;;;10.48;;
75054;SDS011;63636;44.746;10.488;2023-04-21T00:24:23;15.05;;;10.32;;
75054;SDS011;63636;44.746;10.488;2023-04-21T00:26:49;14.43;;;10.00;;
75054;SDS011;63636;44.746;10.488;2023-04-21T00:29:15;15.07;;;9.80;;
75054;SDS011;63636;44.746;10.488;2023-04-21T00:31:41;15.45;;;10.15;;
75054;SDS011;63636;44.746;10.488;2023-04-21T00:34:06;17.15;;;9.98;;
75054;SDS011;63636;44.746;10.488;2023-04-21T00:36:32;15.18;;;9.65;;
75054;SDS011;63636;44.746;10.488;2023-04-21T00:38:58;15.27;;;10.13;;
75054;SDS011;63636;44.746;10.488;2023-04-21T00:41:23;16.45;;;10.20;;
75054;SDS011;63636;44.746;10.488;2023-04-21T00:43:59;16.02;;;10.40;;
75054;SDS011;63636;44.746;10.488;2023-04-21T00:46:25;16.52;;;9.98;;
75054;SDS011;63636;44.746;10.488;2023-04-21T00:48:50;16.40;;;9.95;;
75054;SDS011;63636;44.746;10.488;2023-04-21T00:51:16;15.85;;;9.95;;
75054;SDS011;63636;44.746;10.488;2023-04-21T00:53:41;14.35;;;9.50;;
75054;SDS011;63636;44.746;10.488;2023-04-21T00:56:07;16.27;;;9.82;;
75054;SDS011;63636;44.746;10.488;2023-04-21T00:58:34;14.10;;;9.48;;
75054;SDS011;63636;44.746;10.488;2023-04-21T01:01:01;17.42;;;9.95;;
75054;SDS011;63636;44.746;10.488;2023-04-21T01:03:26;14.60;;;9.10;;
75054;SDS011;63636;44.746;10.488;2023-04-21T01:05:52;14.65;;;9.43;;
75054;SDS011;63636;44.746;10.488;2023-04-21T01:08:19;15.85;;;9.32;;
75054;SDS011;63636;44.746;10.488;2023-04-21T01:10:44;14.00;;;8.98;;
75054;SDS011;63636;44.746;10.488;2023-04-21T01:13:11;14.77;;;9.43;;
75054;SDS011;63636;44.746;10.488;2023-04-21T01:15:36;14.27;;;9.20;;
75054;SDS011;63636;44.746;10.488;2023-04-21T01:18:03;14.40;;;9.75;;
75054;SDS011;63636;44.746;10.488;2023-04-21T01:20:29;15.18;;;9.75;;
75054;SDS011;63636;44.746;10.488;2023-04-21T01:22:56;16.23;;;9.73;;
75054;SDS011;63636;44.746;10.488;2023-04-21T01:25:23;15.20;;;9.65;;
75054;SDS011;63636;44.746;10.488;2023-04-21T01:27:52;15.02;;;9.65;;
75054;SDS011;63636;44.746;10.488;2023-04-21T01:30:20;14.32;;;9.02;;
75054;SDS011;63636;44.746;10.488;2023-04-21T01:32:45;14.90;;;9.35;;
75054;SDS011;63636;44.746;10.488;2023-04-21T01:35:11;14.88;;;9.68;;
75054;SDS011;63636;44.746;10.488;2023-04-21T01:37:37;17.05;;;9.27;;
75054;SDS011;63636;44.746;10.488;2023-04-21T01:40:04;16.35;;;9.82;;
75054;SDS011;63636;44.746;10.488;2023-04-21T01:42:32;15.73;;;9.35;;
75054;SDS011;63636;44.746;10.488;2023-04-21T01:44:58;13.38;;;9.48;;
75054;SDS011;63636;44.746;10.488;2023-04-21T01:47:24;14.95;;;8.80;;
75054;SDS011;63636;44.746;10.488;2023-04-21T01:49:50;14.13;;;9.07;;
75054;SDS011;63636;44.746;10.488;2023-04-21T01:52:15;15.00;;;9.40;;
75054;SDS011;63636;44.746;10.488;2023-04-21T01:54:41;13.57;;;9.23;;
75054;SDS011;63636;44.746;10.488;2023-04-21T01:57:07;15.43;;;9.40;;
75054;SDS011;63636;44.746;10.488;2023-04-21T01:59:32;14.25;;;9.38;;
75054;SDS011;63636;44.746;10.488;2023-04-21T02:01:58;13.35;;;8.70;;
75054;SDS011;63636;44.746;10.488;2023-04-21T02:04:23;13.57;;;8.45;;
75054;SDS011;63636;44.746;10.488;2023-04-21T02:06:49;16.65;;;9.15;;
75054;SDS011;63636;44.746;10.488;2023-04-21T02:09:14;13.05;;;8.25;;
75054;SDS011;63636;44.746;10.488;2023-04-21T02:11:40;15.30;;;9.30;;
75054;SDS011;63636;44.746;10.488;2023-04-21T02:14:05;13.73;;;8.43;;
75054;SDS011;63636;44.746;10.488;2023-04-21T02:16:31;16.33;;;8.90;;
75054;SDS011;63636;44.746;10.488;2023-04-21T02:18:57;12.82;;;8.63;;
75054;SDS011;63636;44.746;10.488;2023-04-21T02:21:26;13.02;;;8.63;;
75054;SDS011;63636;44.746;10.488;2023-04-21T02:23:51;13.35;;;8.43;;
75054;SDS011;63636;44.746;10.488;2023-04-21T02:26:17;14.18;;;8.32;;
75054;SDS011;63636;44.746;10.488;2023-04-21T02:28:43;15.15;;;9.15;;
75054;SDS011;63636;44.746;10.488;2023-04-21T02:31:08;14.50;;;8.95;;
75054;SDS011;63636;44.746;10.488;2023-04-21T02:33:34;13.50;;;8.55;;
75054;SDS011;63636;44.746;10.488;2023-04-21T02:36:00;16.50;;;9.23;;
75054;SDS011;63636;44.746;10.488;2023-04-21T02:38:25;15.25;;;8.75;;
75054;SDS011;63636;44.746;10.488;2023-04-21T02:40:51;15.60;;;9.73;;
75054;SDS011;63636;44.746;10.488;2023-04-21T02:43:17;17.30;;;10.25;;
75054;SDS011;63636;44.746;10.488;2023-04-21T02:45:43;15.07;;;9.95;;
75054;SDS011;63636;44.746;10.488;2023-04-21T02:48:09;15.90;;;9.75;;
75054;SDS011;63636;44.746;10.488;2023-04-21T02:50:35;15.70;;;10.05;;
75054;SDS011;63636;44.746;10.488;2023-04-21T02:53:00;16.05;;;9.32;;
75054;SDS011;63636;44.746;10.488;2023-04-21T02:55:26;16.52;;;9.77;;
75054;SDS011;63636;44.746;10.488;2023-04-21T02:57:51;13.82;;;9.40;;
75054;SDS011;63636;44.746;10.488;2023-04-21T03:00:20;15.60;;;9.20;;
75054;SDS011;63636;44.746;10.488;2023-04-21T03:02:46;14.43;;;9.10;;
75054;SDS011;63636;44.746;10.488;2023-04-21T03:05:11;16.55;;;9.55;;
75054;SDS011;63636;44.746;10.488;2023-04-21T03:07:37;14.45;;;9.20;;
75054;SDS011;63636;44.746;10.488;2023-04-21T03:10:03;14.90;;;8.85;;
75054;SDS011;63636;44.746;10.488;2023-04-21T03:12:28;15.25;;;9.50;;
75054;SDS011;63636;44.746;10.488;2023-04-21T03:14:54;15.23;;;9.32;;
75054;SDS011;63636;44.746;10.488;2023-04-21T03:17:20;15.80;;;9.98;;
75054;SDS011;63636;44.746;10.488;2023-04-21T03:19:46;15.15;;;9.75;;
75054;SDS011;63636;44.746;10.488;2023-04-21T03:22:11;16.48;;;9.85;;
75054;SDS011;63636;44.746;10.488;2023-04-21T03:24:37;15.57;;;9.38;;
75054;SDS011;63636;44.746;10.488;2023-04-21T03:27:04;14.95;;;9.23;;
75054;SDS011;63636;44.746;10.488;2023-04-21T03:29:29;15.05;;;9.50;;
75054;SDS011;63636;44.746;10.488;2023-04-21T03:31:55;16.02;;;9.25;;
75054;SDS011;63636;44.746;10.488;2023-04-21T03:34:21;14.75;;;9.40;;
75054;SDS011;63636;44.746;10.488;2023-04-21T03:36:47;15.88;;;9.95;;
75054;SDS011;63636;44.746;10.488;2023-04-21T03:39:12;14.73;;;9.43;;
75054;SDS011;63636;44.746;10.488;2023-04-21T03:41:38;13.98;;;9.13;;
75054;SDS011;63636;44.746;10.488;2023-04-21T03:44:03;13.63;;;8.75;;
75054;SDS011;63636;44.746;10.488;2023-04-21T03:46:29;14.50;;;9.65;;
75054;SDS011;63636;44.746;10.488;2023-04-21T03:48:55;13.48;;;9.07;;
75054;SDS011;63636;44.746;10.488;2023-04-21T03:51:20;15.90;;;9.90;;
75054;SDS011;63636;44.746;10.488;2023-04-21T03:53:45;14.57;;;8.95;;
75054;SDS011;63636;44.746;10.488;2023-04-21T03:56:11;14.45;;;9.52;;
75054;SDS011;63636;44.746;10.488;2023-04-21T03:58:36;15.60;;;9.48;;
75054;SDS011;63636;44.746;10.488;2023-04-21T04:01:05;15.10;;;9.68;;
75054;SDS011;63636;44.746;10.488;2023-04-21T04:03:31;14.38;;;9.15;;
75054;SDS011;63636;44.746;10.488;2023-04-21T04:05:57;14.18;;;9.13;;
75054;SDS011;63636;44.746;10.488;2023-04-21T04:08:22;14.98;;;9.55;;
75054;SDS011;63636;44.746;10.488;2023-04-21T04:10:48;15.20;;;9.63;;
75054;SDS011;63636;44.746;10.488;2023-04-21T04:13:13;15.73;;;10.13;;
75054;SDS011;63636;44.746;10.488;2023-04-21T04:15:40;14.57;;;9.50;;
75054;SDS011;63636;44.746;10.488;2023-04-21T04:18:05;17.38;;;10.32;;
75054;SDS011;63636;44.746;10.488;2023-04-21T04:20:31;16.30;;;9.93;;
75054;SDS011;63636;44.746;10.488;2023-04-21T04:22:56;16.95;;;9.13;;
75054;SDS011;63636;44.746;10.488;2023-04-21T04:25:22;15.45;;;9.82;;
75054;SDS011;63636;44.746;10.488;2023-04-21T04:27:47;15.45;;;10.25;;
75054;SDS011;63636;44.746;10.488;2023-04-21T04:30:14;19.27;;;10.43;;
75054;SDS011;63636;44.746;10.488;2023-04-21T04:32:40;14.60;;;9.07;;
75054;SDS011;63636;44.746;10.488;2023-04-21T04:35:05;15.57;;;9.50;;
75054;SDS011;63636;44.746;10.488;2023-04-21T04:37:32;14.20;;;9.68;;
75054;SDS011;63636;44.746;10.488;2023-04-21T04:39:58;14.55;;;9.50;;
75054;SDS011;63636;44.746;10.488;2023-04-21T04:42:24;12.85;;;8.98;;
75054;SDS011;63636;44.746;10.488;2023-04-21T04:44:53;15.35;;;9.52;;
75054;SDS011;63636;44.746;10.488;2023-04-21T04:47:18;15.02;;;9.60;;
75054;SDS011;63636;44.746;10.488;2023-04-21T04:49:44;15.05;;;10.02;;
75054;SDS011;63636;44.746;10.488;2023-04-21T04:52:09;16.20;;;9.52;;
75054;SDS011;63636;44.746;10.488;2023-04-21T04:54:35;14.85;;;9.38;;
75054;SDS011;63636;44.746;10.488;2023-04-21T04:57:01;15.27;;;9.80;;
75054;SDS011;63636;44.746;10.488;2023-04-21T04:59:26;15.65;;;9.75;;
75054;SDS011;63636;44.746;10.488;2023-04-21T05:01:52;16.45;;;8.77;;
75054;SDS011;63636;44.746;10.488;2023-04-21T05:04:18;14.57;;;9.50;;
75054;SDS011;63636;44.746;10.488;2023-04-21T05:06:43;14.15;;;9.70;;
75054;SDS011;63636;44.746;10.488;2023-04-21T05:09:09;16.58;;;9.55;;
75054;SDS011;63636;44.746;10.488;2023-04-21T05:11:34;15.60;;;9.30;;
75054;SDS011;63636;44.746;10.488;2023-04-21T05:14:00;16.27;;;9.73;;
75054;SDS011;63636;44.746;10.488;2023-04-21T05:16:25;15.20;;;9.77;;
75054;SDS011;63636;44.746;10.488;2023-04-21T05:18:51;15.23;;;10.20;;
75054;SDS011;63636;44.746;10.488;2023-04-21T05:21:26;14.50;;;9.45;;
75054;SDS011;63636;44.746;10.488;2023-04-21T05:23:58;15.27;;;10.20;;
75054;SDS011;63636;44.746;10.488;2023-04-21T05:26:24;15.90;;;9.88;;
75054;SDS011;63636;44.746;10.488;2023-04-21T05:28:54;15.70;;;9.43;;
75054;SDS011;63636;44.746;10.488;2023-04-21T05:31:23;15.60;;;9.88;;
75054;SDS011;63636;44.746;10.488;2023-04-21T05:33:48;16.10;;;10.10;;
75054;SDS011;63636;44.746;10.488;2023-04-21T05:36:14;18.23;;;9.75;;
75054;SDS011;63636;44.746;10.488;2023-04-21T05:38:40;16.10;;;9.80;;
75054;SDS011;63636;44.746;10.488;2023-04-21T05:41:05;16.15;;;9.52;;
75054;SDS011;63636;44.746;10.488;2023-04-21T05:43:31;14.60;;;10.05;;
75054;SDS011;63636;44.746;10.488;2023-04-21T05:46:00;16.02;;;9.93;;
75054;SDS011;63636;44.746;10.488;2023-04-21T05:48:26;14.75;;;9.60;;
75054;SDS011;63636;44.746;10.488;2023-04-21T05:50:51;18.20;;;10.77;;
75054;SDS011;63636;44.746;10.488;2023-04-21T05:53:17;13.43;;;9.55;;
75054;SDS011;63636;44.746;10.488;2023-04-21T05:55:42;18.20;;;10.80;;
75054;SDS011;63636;44.746;10.488;2023-04-21T05:58:07;19.17;;;11.65;;
75054;SDS011;63636;44.746;10.488;2023-04-21T06:00:33;18.83;;;11.60;;
75054;SDS011;63636;44.746;10.488;2023-04-21T06:02:59;18.17;;;11.60;;
75054;SDS011;63636;44.746;10.488;2023-04-21T06:05:24;18.83;;;11.88;;
75054;SDS011;63636;44.746;10.488;2023-04-21T06:07:50;19.83;;;11.68;;
75054;SDS011;63636;44.746;10.488;2023-04-21T06:10:16;18.95;;;12.30;;
75054;SDS011;63636;44.746;10.488;2023-04-21T06:12:41;19.95;;;11.77;;
75054;SDS011;63636;44.746;10.488;2023-04-21T06:15:07;18.95;;;11.93;;
75054;SDS011;63636;44.746;10.488;2023-04-21T06:17:33;19.75;;;12.88;;
75054;SDS011;63636;44.746;10.488;2023-04-21T06:19:58;19.45;;;12.82;;
75054;SDS011;63636;44.746;10.488;2023-04-21T06:22:24;20.35;;;12.52;;
75054;SDS011;63636;44.746;10.488;2023-04-21T06:24:50;18.17;;;11.40;;
75054;SDS011;63636;44.746;10.488;2023-04-21T06:27:15;18.27;;;11.05;;
75054;SDS011;63636;44.746;10.488;2023-04-21T06:29:41;16.80;;;11.15;;
75054;SDS011;63636;44.746;10.488;2023-04-21T06:32:07;19.77;;;11.25;;
75054;SDS011;63636;44.746;10.488;2023-04-21T06:34:33;19.45;;;11.48;;
75054;SDS011;63636;44.746;10.488;2023-04-21T06:36:58;18.90;;;11.32;;
75054;SDS011;63636;44.746;10.488;2023-04-21T06:39:25;17.25;;;10.98;;
75054;SDS011;63636;44.746;10.488;2023-04-21T06:41:50;18.92;;;10.85;;
75054;SDS011;63636;44.746;10.488;2023-04-21T06:44:16;18.58;;;11.18;;
75054;SDS011;63636;44.746;10.488;2023-04-21T06:46:42;18.33;;;11.23;;
75054;SDS011;63636;44.746;10.488;2023-04-21T06:49:08;18.73;;;11.55;;
75054;SDS011;63636;44.746;10.488;2023-04-21T06:51:33;19.10;;;11.15;;
75054;SDS011;63636;44.746;10.488;2023-04-21T06:53:59;18.63;;;11.52;;
75054;SDS011;63636;44.746;10.488;2023-04-21T06:56:28;21.13;;;11.82;;
75054;SDS011;63636;44.746;10.488;2023-04-21T06:58:54;19.55;;;11.48;;
75054;SDS011;63636;44.746;10.488;2023-04-21T07:01:20;20.05;;;12.05;;
75054;SDS011;63636;44.746;10.488;2023-04-21T07:03:46;21.30;;;12.57;;
75054;SDS011;63636;44.746;10.488;2023-04-21T07:06:12;19.52;;;12.35;;
75054;SDS011;63636;44.746;10.488;2023-04-21T07:08:37;18.73;;;11.80;;
75054;SDS011;63636;44.746;10.488;2023-04-21T07:11:03;20.58;;;12.48;;
75054;SDS011;63636;44.746;10.488;2023-04-21T07:13:28;21.75;;;12.98;;
75054;SDS011;63636;44.746;10.488;2023-04-21T07:15:54;24.70;;;13.80;;
75054;SDS011;63636;44.746;10.488;2023-04-21T07:18:20;20.73;;;13.15;;
75054;SDS011;63636;44.746;10.488;2023-04-21T07:20:45;22.02;;;13.02;;
75054;SDS011;63636;44.746;10.488;2023-04-21T07:23:11;22.50;;;13.15;;
75054;SDS011;63636;44.746;10.488;2023-04-21T07:25:36;21.20;;;13.00;;
75054;SDS011;63636;44.746;10.488;2023-04-21T07:28:02;21.00;;;13.20;;
75054;SDS011;63636;44.746;10.488;2023-04-21T07:30:28;23.13;;;12.32;;
75054;SDS011;63636;44.746;10.488;2023-04-21T07:32:54;20.23;;;12.90;;
75054;SDS011;63636;44.746;10.488;2023-04-21T07:35:20;21.20;;;13.50;;
75054;SDS011;63636;44.746;10.488;2023-04-21T07:37:45;22.42;;;13.50;;
75054;SDS011;63636;44.746;10.488;2023-04-21T07:40:11;22.45;;;12.90;;
75054;SDS011;63636;44.746;10.488;2023-04-21T07:42:37;23.67;;;12.82;;
75054;SDS011;63636;44.746;10.488;2023-04-21T07:45:03;21.92;;;13.55;;
75054;SDS011;63636;44.746;10.488;2023-04-21T07:47:29;21.67;;;13.00;;
75054;SDS011;63636;44.746;10.488;2023-04-21T07:49:55;24.55;;;13.75;;
75054;SDS011;63636;44.746;10.488;2023-04-21T07:52:21;22.45;;;13.85;;
75054;SDS011;63636;44.746;10.488;2023-04-21T07:54:50;21.73;;;13.63;;
75054;SDS011;63636;44.746;10.488;2023-04-21T07:57:15;23.75;;;14.00;;
75054;SDS011;63636;44.746;10.488;2023-04-21T07:59:44;25.58;;;14.50;;
75054;SDS011;63636;44.746;10.488;2023-04-21T08:02:10;25.35;;;14.18;;
75054;SDS011;63636;44.746;10.488;2023-04-21T08:04:35;22.60;;;13.93;;
75054;SDS011;63636;44.746;10.488;2023-04-21T08:07:01;23.40;;;13.95;;
75054;SDS011;63636;44.746;10.488;2023-04-21T08:09:26;24.95;;;14.15;;
75054;SDS011;63636;44.746;10.488;2023-04-21T08:11:52;23.50;;;14.43;;
75054;SDS011;63636;44.746;10.488;2023-04-21T08:14:19;24.00;;;13.10;;
75054;SDS011;63636;44.746;10.488;2023-04-21T08:16:45;24.02;;;13.93;;
75054;SDS011;63636;44.746;10.488;2023-04-21T08:19:10;23.02;;;14.40;;
75054;SDS011;63636;44.746;10.488;2023-04-21T08:21:36;22.90;;;14.05;;
75054;SDS011;63636;44.746;10.488;2023-04-21T08:24:01;24.35;;;14.35;;
75054;SDS011;63636;44.746;10.488;2023-04-21T08:26:27;22.15;;;13.82;;
75054;SDS011;63636;44.746;10.488;2023-04-21T08:28:54;22.85;;;14.43;;
75054;SDS011;63636;44.746;10.488;2023-04-21T08:31:20;21.52;;;14.13;;
75054;SDS011;63636;44.746;10.488;2023-04-21T08:33:48;21.90;;;14.05;;
75054;SDS011;63636;44.746;10.488;2023-04-21T08:36:14;22.42;;;13.45;;
75054;SDS011;63636;44.746;10.488;2023-04-21T08:38:41;19.60;;;12.73;;
75054;SDS011;63636;44.746;10.488;2023-04-21T08:41:06;20.50;;;12.95;;
75054;SDS011;63636;44.746;10.488;2023-04-21T08:43:32;21.63;;;13.32;;
75054;SDS011;63636;44.746;10.488;2023-04-21T08:45:58;21.65;;;13.48;;
75054;SDS011;63636;44.746;10.488;2023-04-21T08:48:24;22.17;;;13.70;;
75054;SDS011;63636;44.746;10.488;2023-04-21T08:50:50;21.98;;;14.05;;
75054;SDS011;63636;44.746;10.488;2023-04-21T08:53:16;22.73;;;14.60;;
75054;SDS011;63636;44.746;10.488;2023-04-21T08:55:42;22.90;;;14.10;;
75054;SDS011;63636;44.746;10.488;2023-04-21T08:58:08;21.17;;;14.05;;
75054;SDS011;63636;44.746;10.488;2023-04-21T09:00:37;21.02;;;14.15;;
75054;SDS011;63636;44.746;10.488;2023-04-21T09:03:03;22.17;;;14.18;;
75054;SDS011;63636;44.746;10.488;2023-04-21T09:05:32;24.38;;;14.80;;
75054;SDS011;63636;44.746;10.488;2023-04-21T09:08:08;21.83;;;13.80;;
75054;SDS011;63636;44.746;10.488;2023-04-21T09:10:44;22.17;;;13.85;;
75054;SDS011;63636;44.746;10.488;2023-04-21T09:13:10;21.85;;;13.70;;
75054;SDS011;63636;44.746;10.488;2023-04-21T09:15:54;20.40;;;13.50;;
75054;SDS011;63636;44.746;10.488;2023-04-21T09:18:26;23.92;;;14.25;;
75054;SDS011;63636;44.746;10.488;2023-04-21T09:21:26;21.40;;;13.90;;
75054;SDS011;63636;44.746;10.488;2023-04-21T09:23:51;23.50;;;12.13;;
75054;SDS011;63636;44.746;10.488;2023-04-21T09:26:17;20.63;;;13.32;;
75054;SDS011;63636;44.746;10.488;2023-04-21T09:28:43;20.83;;;12.63;;
75054;SDS011;63636;44.746;10.488;2023-04-21T09:31:18;20.33;;;12.10;;
75054;SDS011;63636;44.746;10.488;2023-04-21T09:33:48;18.88;;;12.18;;
75054;SDS011;63636;44.746;10.488;2023-04-21T09:36:20;18.48;;;11.45;;
75054;SDS011;63636;44.746;10.488;2023-04-21T09:39:04;17.65;;;11.55;;
75054;SDS011;63636;44.746;10.488;2023-04-21T09:41:30;18.05;;;11.85;;
75054;SDS011;63636;44.746;10.488;2023-04-21T09:43:56;17.17;;;10.90;;
75054;SDS011;63636;44.746;10.488;2023-04-21T09:46:25;17.70;;;12.00;;
75054;SDS011;63636;44.746;10.488;2023-04-21T09:48:53;16.73;;;11.25;;
75054;SDS011;63636;44.746;10.488;2023-04-21T09:51:20;17.40;;;12.65;;
75054;SDS011;63636;44.746;10.488;2023-04-21T09:53:46;17.75;;;11.60;;
75054;SDS011;63636;44.746;10.488;2023-04-21T09:56:13;18.77;;;12.45;;
75054;SDS011;63636;44.746;10.488;2023-04-21T09:58:43;18.70;;;12.38;;
75054;SDS011;63636;44.746;10.488;2023-04-21T10:01:10;19.52;;;12.85;;
75054;SDS011;63636;44.746;10.488;2023-04-21T10:03:37;17.98;;;12.48;;
75054;SDS011;63636;44.746;10.488;2023-04-21T10:06:04;16.73;;;11.75;;
75054;SDS011;63636;44.746;10.488;2023-04-21T10:08:29;14.38;;;9.77;;
75054;SDS011;63636;44.746;10.488;2023-04-21T10:10:55;16.52;;;11.60;;
75054;SDS011;63636;44.746;10.488;2023-04-21T10:13:21;16.08;;;10.50;;
75054;SDS011;63636;44.746;10.488;2023-04-21T10:15:46;15.35;;;10.93;;
75054;SDS011;63636;44.746;10.488;2023-04-21T10:18:16;17.55;;;11.82;;
75054;SDS011;63636;44.746;10.488;2023-04-21T10:21:05;15.07;;;11.15;;
75054;SDS011;63636;44.746;10.488;2023-04-21T10:23:38;16.25;;;11.23;;
75054;SDS011;63636;44.746;10.488;2023-04-21T10:26:08;15.82;;;11.10;;
75054;SDS011;63636;44.746;10.488;2023-04-21T10:39:29;17.13;;;11.32;;
75054;SDS011;63636;44.746;10.488;2023-04-21T10:44:43;18.52;;;11.85;;
75054;SDS011;63636;44.746;10.488;2023-04-21T10:47:08;17.45;;;10.77;;
75054;SDS011;63636;44.746;10.488;2023-04-21T10:49:38;16.45;;;10.88;;
75054;SDS011;63636;44.746;10.488;2023-04-21T10:52:04;15.85;;;10.98;;
75054;SDS011;63636;44.746;10.488;2023-04-21T10:57:12;17.15;;;11.15;;
75054;SDS011;63636;44.746;10.488;2023-04-21T10:59:37;16.23;;;10.57;;
75054;SDS011;63636;44.746;10.488;2023-04-21T11:02:06;15.15;;;10.05;;
75054;SDS011;63636;44.746;10.488;2023-04-21T11:04:33;20.15;;;11.35;;
75054;SDS011;63636;44.746;10.488;2023-04-21T11:09:31;17.98;;;12.05;;
75054;SDS011;63636;44.746;10.488;2023-04-21T11:11:57;16.70;;;11.45;;
75054;SDS011;63636;44.746;10.488;2023-04-21T11:14:23;18.30;;;11.38;;
75054;SDS011;63636;44.746;10.488;2023-04-21T11:16:48;17.35;;;11.68;;
75054;SDS011;63636;44.746;10.488;2023-04-21T11:19:14;17.52;;;11.35;;
75054;SDS011;63636;44.746;10.488;2023-04-21T11:21:40;17.40;;;11.88;;
75054;SDS011;63636;44.746;10.488;2023-04-21T11:24:05;18.40;;;12.30;;
75054;SDS011;63636;44.746;10.488;2023-04-21T11:26:34;16.80;;;11.35;;
75054;SDS011;63636;44.746;10.488;2023-04-21T11:29:06;16.00;;;11.18;;
75054;SDS011;63636;44.746;10.488;2023-04-21T11:31:31;15.77;;;10.75;;
75054;SDS011;63636;44.746;10.488;2023-04-21T11:33:58;16.67;;;11.80;;
75054;SDS011;63636;44.746;10.488;2023-04-21T11:36:33;19.75;;;13.13;;
75054;SDS011;63636;44.746;10.488;2023-04-21T11:39:02;19.25;;;12.27;;
75054;SDS011;63636;44.746;10.488;2023-04-21T11:41:28;18.13;;;11.57;;
75054;SDS011;63636;44.746;10.488;2023-04-21T11:43:54;17.55;;;12.05;;
75054;SDS011;63636;44.746;10.488;2023-04-21T11:46:24;18.30;;;12.35;;
75054;SDS011;63636;44.746;10.488;2023-04-21T11:49:00;18.17;;;12.32;;
75054;SDS011;63636;44.746;10.488;2023-04-21T11:51:26;14.90;;;10.25;;
75054;SDS011;63636;44.746;10.488;2023-04-21T11:53:57;15.43;;;10.90;;
75054;SDS011;63636;44.746;10.488;2023-04-21T11:56:22;15.73;;;10.80;;
75054;SDS011;63636;44.746;10.488;2023-04-21T11:58:49;12.63;;;8.77;;
75054;SDS011;63636;44.746;10.488;2023-04-21T12:01:15;13.52;;;9.07;;
75054;SDS011;63636;44.746;10.488;2023-04-21T12:03:41;14.05;;;9.63;;
75054;SDS011;63636;44.746;10.488;2023-04-21T12:06:07;11.93;;;8.05;;
75054;SDS011;63636;44.746;10.488;2023-04-21T12:08:32;12.02;;;8.25;;
75054;SDS011;63636;44.746;10.488;2023-04-21T12:10:58;10.45;;;7.70;;
75054;SDS011;63636;44.746;10.488;2023-04-21T12:13:27;11.80;;;7.47;;
75054;SDS011;63636;44.746;10.488;2023-04-21T12:15:53;10.65;;;7.78;;
75054;SDS011;63636;44.746;10.488;2023-04-21T12:18:19;11.55;;;7.57;;
75054;SDS011;63636;44.746;10.488;2023-04-21T12:20:48;9.45;;;6.80;;
75054;SDS011;63636;44.746;10.488;2023-04-21T12:23:15;9.35;;;6.68;;
75054;SDS011;63636;44.746;10.488;2023-04-21T12:25:40;12.00;;;8.00;;
75054;SDS011;63636;44.746;10.488;2023-04-21T12:28:07;11.90;;;7.25;;
75054;SDS011;63636;44.746;10.488;2023-04-21T12:30:33;10.68;;;7.43;;
75054;SDS011;63636;44.746;10.488;2023-04-21T12:32:59;9.70;;;6.68;;
75054;SDS011;63636;44.746;10.488;2023-04-21T12:35:25;9.13;;;6.82;;
75054;SDS011;63636;44.746;10.488;2023-04-21T12:37:50;10.77;;;7.25;;
75054;SDS011;63636;44.746;10.488;2023-04-21T12:40:16;11.15;;;6.65;;
75054;SDS011;63636;44.746;10.488;2023-04-21T12:42:41;9.90;;;7.10;;
75054;SDS011;63636;44.746;10.488;2023-04-21T12:45:07;10.80;;;7.43;;
75054;SDS011;63636;44.746;10.488;2023-04-21T12:47:33;10.68;;;6.93;;
75054;SDS011;63636;44.746;10.488;2023-04-21T12:50:08;9.93;;;6.93;;
75054;SDS011;63636;44.746;10.488;2023-04-21T12:53:43;8.75;;;6.00;;
75054;SDS011;63636;44.746;10.488;2023-04-21T12:56:09;8.55;;;5.60;;
75054;SDS011;63636;44.746;10.488;2023-04-21T12:58:34;9.05;;;5.90;;
75054;SDS011;63636;44.746;10.488;2023-04-21T13:01:00;7.68;;;5.25;;
75054;SDS011;63636;44.746;10.488;2023-04-21T13:03:26;8.90;;;5.47;;
75054;SDS011;63636;44.746;10.488;2023-04-21T13:05:51;9.48;;;6.50;;
75054;SDS011;63636;44.746;10.488;2023-04-21T13:08:17;9.60;;;6.70;;
75054;SDS011;63636;44.746;10.488;2023-04-21T13:10:43;8.85;;;6.68;;
75054;SDS011;63636;44.746;10.488;2023-04-21T13:13:10;9.90;;;6.38;;
75054;SDS011;63636;44.746;10.488;2023-04-21T13:15:36;9.43;;;6.20;;
75054;SDS011;63636;44.746;10.488;2023-04-21T13:18:01;10.23;;;6.82;;
75054;SDS011;63636;44.746;10.488;2023-04-21T13:20:27;10.30;;;7.10;;
75054;SDS011;63636;44.746;10.488;2023-04-21T13:22:52;11.18;;;6.78;;
75054;SDS011;63636;44.746;10.488;2023-04-21T13:25:18;9.93;;;6.85;;
75054;SDS011;63636;44.746;10.488;2023-04-21T13:27:44;10.07;;;6.57;;
75054;SDS011;63636;44.746;10.488;2023-04-21T13:30:11;11.85;;;7.82;;
75054;SDS011;63636;44.746;10.488;2023-04-21T13:32:37;10.73;;;7.55;;
75054;SDS011;63636;44.746;10.488;2023-04-21T13:35:03;10.85;;;7.93;;
75054;SDS011;63636;44.746;10.488;2023-04-21T13:37:33;9.70;;;7.10;;
75054;SDS011;63636;44.746;10.488;2023-04-21T13:40:00;10.00;;;6.82;;
75054;SDS011;63636;44.746;10.488;2023-04-21T13:42:27;10.32;;;7.03;;
75054;SDS011;63636;44.746;10.488;2023-04-21T13:44:52;10.30;;;7.13;;
75054;SDS011;63636;44.746;10.488;2023-04-21T13:47:18;9.85;;;7.05;;
75054;SDS011;63636;44.746;10.488;2023-04-21T13:49:44;10.00;;;6.75;;
75054;SDS011;63636;44.746;10.488;2023-04-21T13:52:10;11.85;;;8.80;;
75054;SDS011;63636;44.746;10.488;2023-04-21T13:54:36;11.20;;;6.90;;
75054;SDS011;63636;44.746;10.488;2023-04-21T13:57:02;11.57;;;6.93;;
75054;SDS011;63636;44.746;10.488;2023-04-21T13:59:29;9.27;;;6.05;;
75054;SDS011;63636;44.746;10.488;2023-04-21T14:01:55;11.48;;;7.20;;
75054;SDS011;63636;44.746;10.488;2023-04-21T14:04:21;9.30;;;6.13;;
75054;SDS011;63636;44.746;10.488;2023-04-21T14:06:48;9.05;;;6.03;;
75054;SDS011;63636;44.746;10.488;2023-04-21T14:09:14;9.63;;;6.15;;
75054;SDS011;63636;44.746;10.488;2023-04-21T14:11:40;8.40;;;5.47;;
75054;SDS011;63636;44.746;10.488;2023-04-21T14:14:05;8.63;;;6.10;;
75054;SDS011;63636;44.746;10.488;2023-04-21T14:16:31;10.50;;;7.07;;
75054;SDS011;63636;44.746;10.488;2023-04-21T14:18:57;10.10;;;5.85;;
75054;SDS011;63636;44.746;10.488;2023-04-21T14:21:22;9.52;;;6.45;;
75054;SDS011;63636;44.746;10.488;2023-04-21T14:23:48;9.48;;;6.32;;
75054;SDS011;63636;44.746;10.488;2023-04-21T14:26:13;8.70;;;5.95;;
75054;SDS011;63636;44.746;10.488;2023-04-21T14:28:39;8.35;;;5.00;;
75054;SDS011;63636;44.746;10.488;2023-04-21T14:31:05;8.30;;;5.43;;
75054;SDS011;63636;44.746;10.488;2023-04-21T14:33:30;9.48;;;5.90;;